createdAt,value
2022-10-23T00:00:21.442Z,11.70
2022-10-23T00:03:07.546Z,11.70
2022-10-23T00:05:53.461Z,11.70
2022-10-23T00:08:39.894Z,11.70
2022-10-23T00:11:28.940Z,11.70
2022-10-23T00:14:16.348Z,11.60
2022-10-23T00:17:02.645Z,11.50
2022-10-23T00:19:48.558Z,11.50
2022-10-23T00:22:34.777Z,11.40
2022-10-23T00:25:21.291Z,11.40
2022-10-23T00:28:07.515Z,11.40
2022-10-23T00:30:53.608Z,11.50
2022-10-23T00:33:39.918Z,11.40
2022-10-23T00:36:26.080Z,11.40
2022-10-23T00:39:11.946Z,11.40
2022-10-23T00:41:57.809Z,11.30
2022-10-23T00:44:43.781Z,11.30
2022-10-23T00:47:30.079Z,11.20
2022-10-23T00:50:17.195Z,11.20
2022-10-23T00:53:05.125Z,11.10
2022-10-23T00:55:53.923Z,11.10
2022-10-23T00:58:40.188Z,11.00
2022-10-23T01:01:26.251Z,11.00
2022-10-23T01:04:12.653Z,11.00
2022-10-23T01:07:15.757Z,10.90
2022-10-23T01:10:34.535Z,10.90
2022-10-23T01:13:32.788Z,10.90
2022-10-23T01:16:41.128Z,10.80
2022-10-23T01:20:04.392Z,10.80
2022-10-23T01:22:53.321Z,10.80
2022-10-23T01:25:59.661Z,10.80
2022-10-23T01:28:54.905Z,10.70
2022-10-23T01:32:21.908Z,10.50
2022-10-23T01:35:17.612Z,10.50
2022-10-23T01:38:18.609Z,10.60
2022-10-23T01:41:22.738Z,10.60
2022-10-23T01:44:18.660Z,10.70
2022-10-23T01:47:08.219Z,10.70
2022-10-23T01:50:07.618Z,10.60
2022-10-23T01:52:53.936Z,10.50
2022-10-23T01:58:42.694Z,10.50
2022-10-23T02:01:31.100Z,10.60
2022-10-23T02:04:23.636Z,10.70
2022-10-23T02:07:09.853Z,10.70
2022-10-23T02:09:55.886Z,10.70
2022-10-23T02:12:50.701Z,10.50
2022-10-23T02:15:48.681Z,10.50
2022-10-23T02:18:37.664Z,10.50
2022-10-23T02:21:47.035Z,10.60
2022-10-23T02:24:37.651Z,10.60
2022-10-23T02:27:37.485Z,10.60
2022-10-23T02:30:29.288Z,10.50
2022-10-23T02:33:28.701Z,10.50
2022-10-23T02:36:16.010Z,10.50
2022-10-23T02:39:02.086Z,10.60
2022-10-23T02:42:00.489Z,10.70
2022-10-23T02:45:03.566Z,10.70
2022-10-23T02:48:06.465Z,10.80
2022-10-23T02:51:02.957Z,10.80
2022-10-23T02:54:06.436Z,10.80
2022-10-23T02:56:58.707Z,10.80
2022-10-23T02:59:52.897Z,10.80
2022-10-23T03:03:05.971Z,10.70
2022-10-23T03:05:52.475Z,10.70
2022-10-23T03:08:50.318Z,10.60
2022-10-23T03:11:37.648Z,10.50
2022-10-23T03:14:23.647Z,10.40
2022-10-23T03:17:10.418Z,10.30
2022-10-23T03:19:56.889Z,10.20
2022-10-23T03:22:43.294Z,10.10
2022-10-23T03:25:29.976Z,10.10
2022-10-23T03:28:18.445Z,10.20
2022-10-23T03:31:04.576Z,10.30
2022-10-23T03:33:51.000Z,10.30
2022-10-23T03:36:39.053Z,10.40
2022-10-23T03:39:26.270Z,10.40
2022-10-23T03:42:12.489Z,10.40
2022-10-23T03:44:58.614Z,10.40
2022-10-23T03:47:45.481Z,10.40
2022-10-23T03:50:33.806Z,10.40
2022-10-23T03:53:19.750Z,10.40
2022-10-23T03:56:05.874Z,10.40
2022-10-23T03:58:53.277Z,10.40
2022-10-23T04:01:43.550Z,10.40
2022-10-23T04:04:29.631Z,10.30
2022-10-23T04:07:15.900Z,10.30
2022-10-23T04:10:02.050Z,10.20
2022-10-23T04:12:48.586Z,10.20
2022-10-23T04:15:34.801Z,10.20
2022-10-23T04:18:21.515Z,10.20
2022-10-23T04:21:07.722Z,10.20
2022-10-23T04:23:54.031Z,10.20
2022-10-23T04:26:40.047Z,10.20
2022-10-23T04:29:32.399Z,10.20
2022-10-23T04:32:18.784Z,10.20
2022-10-23T04:35:05.181Z,10.10
2022-10-23T04:37:51.013Z,10.00
2022-10-23T04:40:37.558Z,10.00
2022-10-23T04:43:24.616Z,10.00
2022-10-23T04:46:11.048Z,10.10
2022-10-23T04:48:57.033Z,10.10
2022-10-23T04:51:48.654Z,10.20
2022-10-23T04:55:04.573Z,10.20
2022-10-23T04:58:10.968Z,10.20
2022-10-23T05:00:58.346Z,10.20
2022-10-23T05:03:46.016Z,10.20
2022-10-23T05:06:33.181Z,10.30
2022-10-23T05:09:31.483Z,10.20
2022-10-23T05:12:46.762Z,10.30
2022-10-23T05:15:33.032Z,10.30
2022-10-23T05:18:23.834Z,10.30
2022-10-23T05:21:20.075Z,10.40
2022-10-23T05:24:10.192Z,10.40
2022-10-23T05:26:56.932Z,10.40
2022-10-23T05:29:42.792Z,10.50
2022-10-23T05:32:31.362Z,10.50
2022-10-23T05:35:22.676Z,10.40
2022-10-23T05:38:10.616Z,10.50
2022-10-23T05:40:57.777Z,10.50
2022-10-23T05:43:46.225Z,10.40
2022-10-23T05:46:50.991Z,10.40
2022-10-23T05:49:55.983Z,10.40
2022-10-23T05:53:01.153Z,10.40
2022-10-23T05:55:57.105Z,10.30
2022-10-23T05:58:59.845Z,10.40
2022-10-23T06:02:04.273Z,10.40
2022-10-23T06:05:06.006Z,10.30
2022-10-23T06:08:08.365Z,10.20
2022-10-23T06:10:54.444Z,10.20
2022-10-23T06:13:43.094Z,10.10
2022-10-23T06:16:29.526Z,10.00
2022-10-23T06:19:17.137Z,10.00
2022-10-23T06:22:05.306Z,10.00
2022-10-23T06:25:04.975Z,10.10
2022-10-23T06:27:51.412Z,10.10
2022-10-23T06:30:39.343Z,10.20
2022-10-23T06:33:25.404Z,10.20
2022-10-23T06:36:12.896Z,10.30
2022-10-23T06:39:00.818Z,10.30
2022-10-23T06:42:07.590Z,10.40
2022-10-23T06:45:13.933Z,10.60
2022-10-23T06:48:38.536Z,10.60
2022-10-23T06:51:30.097Z,10.80
2022-10-23T06:54:16.657Z,11.10
2022-10-23T06:57:11.613Z,11.60
2022-10-23T07:00:03.773Z,12.00
2022-10-23T07:02:58.049Z,12.60
2022-10-23T07:05:50.565Z,13.10
2022-10-23T07:08:39.326Z,13.50
2022-10-23T07:11:43.727Z,13.80
2022-10-23T07:14:32.172Z,14.00
2022-10-23T07:17:20.254Z,14.30
2022-10-23T07:20:07.076Z,14.60
2022-10-23T07:22:54.999Z,14.90
2022-10-23T07:26:11.249Z,15.00
2022-10-23T07:28:57.102Z,15.00
2022-10-23T07:31:44.181Z,14.90
2022-10-23T07:34:49.021Z,15.00
2022-10-23T07:37:54.192Z,15.10
2022-10-23T07:40:40.948Z,15.10
2022-10-23T07:43:29.306Z,15.00
2022-10-23T07:46:15.535Z,14.90
2022-10-23T07:49:02.497Z,14.70
2022-10-23T07:51:51.403Z,14.70
2022-10-23T07:54:38.505Z,14.50
2022-10-23T07:57:39.445Z,14.50
2022-10-23T08:00:40.823Z,14.60
2022-10-23T08:03:34.473Z,14.80
2022-10-23T08:06:23.190Z,15.00
2022-10-23T08:09:09.999Z,15.40
2022-10-23T08:11:59.627Z,15.90
2022-10-23T08:14:47.126Z,16.50
2022-10-23T08:17:33.599Z,16.80
2022-10-23T08:20:30.532Z,17.00
2022-10-23T08:23:18.757Z,17.00
2022-10-23T08:26:06.517Z,17.10
2022-10-23T08:28:53.436Z,17.10
2022-10-23T08:31:41.489Z,17.20
2022-10-23T08:34:37.836Z,17.10
2022-10-23T08:37:24.821Z,17.00
2022-10-23T08:40:22.247Z,17.10
2022-10-23T08:43:47.085Z,17.10
2022-10-23T08:47:20.015Z,17.10
2022-10-23T08:50:44.798Z,17.10
2022-10-23T08:53:40.468Z,17.30
2022-10-23T08:56:37.429Z,17.40
2022-10-23T08:59:40.550Z,17.70
2022-10-23T09:02:31.801Z,17.80
2022-10-23T09:05:39.554Z,18.00
2022-10-23T09:08:32.630Z,18.30
2022-10-23T09:11:43.030Z,18.80
2022-10-23T09:14:36.303Z,19.20
2022-10-23T09:17:28.725Z,19.90
2022-10-23T09:20:27.425Z,20.30
2022-10-23T09:23:24.448Z,20.90
2022-10-23T09:26:16.845Z,21.00
2022-10-23T09:29:19.649Z,20.90
2022-10-23T09:32:07.142Z,20.80
2022-10-23T09:34:55.336Z,20.60
2022-10-23T09:37:46.503Z,20.40
2022-10-23T09:40:41.772Z,20.40
2022-10-23T09:43:28.756Z,20.40
2022-10-23T09:46:21.205Z,20.30
2022-10-23T09:49:20.244Z,20.30
2022-10-23T09:52:12.951Z,20.40
2022-10-23T09:55:01.360Z,20.50
2022-10-23T09:57:48.271Z,21.00
2022-10-23T10:00:34.785Z,21.70
2022-10-23T10:03:23.365Z,22.40
2022-10-23T10:06:33.394Z,23.00
2022-10-23T10:09:19.678Z,23.50
2022-10-23T10:12:22.839Z,24.00
2022-10-23T10:15:21.374Z,24.30
2022-10-23T10:18:28.855Z,24.60
2022-10-23T10:21:31.038Z,24.40
2022-10-23T10:24:22.357Z,25.00
2022-10-23T10:27:36.753Z,25.30
2022-10-23T10:30:24.177Z,25.30
2022-10-23T10:33:32.485Z,25.00
2022-10-23T10:36:40.946Z,24.40
2022-10-23T10:39:45.641Z,24.30
2022-10-23T10:43:03.646Z,24.80
2022-10-23T10:46:09.987Z,25.30
2022-10-23T10:49:10.579Z,25.60
2022-10-23T10:52:20.709Z,25.80
2022-10-23T10:55:32.790Z,25.70
2022-10-23T10:58:42.992Z,25.70
2022-10-23T11:01:41.612Z,25.60
2022-10-23T11:04:36.070Z,25.90
2022-10-23T11:07:26.684Z,26.00
2022-10-23T11:10:18.050Z,26.20
2022-10-23T11:13:04.801Z,25.90
2022-10-23T11:18:46.573Z,25.30
2022-10-23T11:22:06.736Z,25.50
2022-10-23T11:25:30.611Z,25.10
2022-10-23T11:28:19.548Z,25.00
2022-10-23T11:31:15.550Z,24.80
2022-10-23T11:34:39.259Z,24.40
2022-10-23T11:37:26.821Z,24.20
2022-10-23T11:40:22.439Z,24.20
2022-10-23T11:43:09.477Z,24.20
2022-10-23T11:45:55.607Z,24.50
2022-10-23T11:48:44.064Z,24.60
2022-10-23T11:51:34.776Z,24.40
2022-10-23T11:54:24.497Z,24.20
2022-10-23T11:57:15.722Z,24.00
2022-10-23T12:00:01.774Z,24.00
2022-10-23T12:02:58.262Z,24.00
2022-10-23T12:05:45.719Z,24.10
2022-10-23T12:08:35.732Z,24.10
2022-10-23T12:11:27.756Z,24.10
2022-10-23T12:14:46.093Z,24.30
2022-10-23T12:17:36.555Z,24.70
2022-10-23T12:20:37.848Z,25.10
2022-10-23T12:23:50.782Z,25.30
2022-10-23T12:26:50.760Z,25.40
2022-10-23T12:30:13.931Z,25.40
2022-10-23T12:33:03.047Z,25.40
2022-10-23T12:36:24.396Z,25.20
2022-10-23T12:39:30.991Z,25.00
2022-10-23T12:42:27.596Z,24.50
2022-10-23T12:45:22.481Z,24.10
2022-10-23T12:48:20.113Z,23.80
2022-10-23T12:51:06.355Z,23.80
2022-10-23T12:53:52.967Z,23.60
2022-10-23T12:56:39.057Z,23.50
2022-10-23T12:59:38.434Z,23.30
2022-10-23T13:02:26.010Z,23.50
2022-10-23T13:05:18.005Z,23.80
2022-10-23T13:08:04.542Z,24.20
2022-10-23T13:11:05.617Z,24.20
2022-10-23T13:13:55.141Z,24.40
2022-10-23T13:16:41.510Z,24.50
2022-10-23T13:19:27.713Z,24.50
2022-10-23T13:22:21.556Z,24.30
2022-10-23T13:25:28.962Z,24.20
2022-10-23T13:28:28.853Z,24.40
2022-10-23T13:31:14.938Z,24.70
2022-10-23T13:34:06.963Z,25.00
2022-10-23T13:37:00.322Z,25.40
2022-10-23T13:39:58.756Z,25.60
2022-10-23T13:42:47.920Z,25.60
2022-10-23T13:45:35.722Z,25.90
2022-10-23T13:48:21.842Z,26.00
2022-10-23T13:51:28.705Z,25.90
2022-10-23T13:54:18.349Z,25.70
2022-10-23T13:57:04.529Z,25.30
2022-10-23T13:59:50.337Z,25.00
2022-10-23T14:02:36.339Z,24.70
2022-10-23T14:05:22.266Z,24.60
2022-10-23T14:08:08.264Z,24.70
2022-10-23T14:10:54.270Z,25.00
2022-10-23T14:13:40.485Z,25.30
2022-10-23T14:16:27.004Z,25.40
2022-10-23T14:19:13.126Z,25.70
2022-10-23T14:21:59.169Z,25.80
2022-10-23T14:24:45.096Z,25.50
2022-10-23T14:27:31.429Z,25.30
2022-10-23T14:30:17.477Z,25.00
2022-10-23T14:33:04.410Z,24.70
2022-10-23T14:35:51.229Z,24.10
2022-10-23T14:38:37.567Z,23.70
2022-10-23T14:41:24.304Z,23.40
2022-10-23T14:44:10.141Z,22.90
2022-10-23T14:46:56.028Z,22.60
2022-10-23T14:49:42.929Z,22.30
2022-10-23T14:52:28.922Z,22.10
2022-10-23T14:55:15.359Z,21.90
2022-10-23T14:58:01.147Z,21.70
2022-10-23T15:01:00.616Z,21.50
2022-10-23T15:03:46.970Z,21.40
2022-10-23T15:06:34.776Z,21.30
2022-10-23T15:09:20.971Z,21.30
2022-10-23T15:12:07.684Z,21.10
2022-10-23T15:14:54.043Z,21.00
2022-10-23T15:17:41.413Z,20.90
2022-10-23T15:20:27.412Z,20.80
2022-10-23T15:23:13.327Z,20.80
2022-10-23T15:26:00.520Z,20.60
2022-10-23T15:28:54.459Z,20.50
2022-10-23T15:31:49.416Z,20.40
2022-10-23T15:34:37.530Z,20.30
2022-10-23T15:37:24.366Z,20.20
2022-10-23T15:40:10.771Z,20.10
2022-10-23T15:42:56.661Z,20.00
2022-10-23T15:45:43.008Z,19.90
2022-10-23T15:48:29.206Z,19.80
2022-10-23T15:51:15.227Z,19.70
2022-10-23T15:54:01.164Z,19.50
2022-10-23T15:56:49.665Z,19.50
2022-10-23T15:59:35.713Z,19.40
2022-10-23T16:02:23.188Z,19.30
2022-10-23T16:05:09.854Z,19.20
2022-10-23T16:07:56.134Z,19.20
2022-10-23T16:10:43.101Z,19.10
2022-10-23T16:13:29.269Z,19.10
2022-10-23T16:16:15.645Z,19.10
2022-10-23T16:19:03.638Z,19.00
2022-10-23T16:21:49.563Z,19.00
2022-10-23T16:24:35.395Z,18.90
2022-10-23T16:27:21.371Z,18.80
2022-10-23T16:30:09.325Z,18.70
2022-10-23T16:32:55.673Z,18.60
2022-10-23T16:35:41.776Z,18.50
2022-10-23T16:38:34.776Z,18.40
2022-10-23T16:41:20.697Z,18.40
2022-10-23T16:44:19.307Z,18.40
2022-10-23T16:47:25.177Z,18.40
2022-10-23T16:50:11.192Z,18.40
2022-10-23T16:52:57.047Z,18.30
2022-10-23T16:55:42.932Z,18.30
2022-10-23T16:58:28.800Z,18.20
2022-10-23T17:01:18.475Z,18.20
2022-10-23T17:04:07.466Z,18.10
2022-10-23T17:06:53.611Z,18.00
2022-10-23T17:09:40.298Z,17.90
2022-10-23T17:12:26.511Z,17.90
2022-10-23T17:15:12.659Z,17.70
2022-10-23T17:17:58.671Z,17.60
2022-10-23T17:20:44.878Z,17.40
2022-10-23T17:23:31.528Z,17.30
2022-10-23T17:26:19.803Z,17.30
2022-10-23T17:29:09.010Z,17.30
2022-10-23T17:31:55.246Z,17.30
2022-10-23T17:34:41.434Z,17.30
2022-10-23T17:37:27.288Z,17.30
2022-10-23T17:40:13.405Z,17.20
2022-10-23T17:43:03.947Z,17.20
2022-10-23T17:45:50.190Z,17.10
2022-10-23T17:48:36.310Z,17.10
2022-10-23T17:51:24.464Z,17.10
2022-10-23T17:54:12.252Z,17.20
2022-10-23T17:56:58.695Z,17.10
2022-10-23T17:59:45.084Z,16.90
2022-10-23T18:02:31.113Z,17.00
2022-10-23T18:05:17.321Z,16.90
2022-10-23T18:08:03.448Z,17.00
2022-10-23T18:10:49.653Z,17.00
2022-10-23T18:13:36.953Z,16.90
2022-10-23T18:16:23.393Z,17.00
2022-10-23T18:19:10.624Z,17.00
2022-10-23T18:21:57.324Z,16.90
2022-10-23T18:24:43.622Z,16.90
2022-10-23T18:27:29.441Z,16.80
2022-10-23T18:30:15.511Z,16.70
2022-10-23T18:33:01.501Z,16.60
2022-10-23T18:35:47.697Z,16.60
2022-10-23T18:38:33.978Z,16.50
2022-10-23T18:41:23.574Z,16.50
2022-10-23T18:44:14.021Z,16.40
2022-10-23T18:47:00.426Z,16.30
2022-10-23T18:49:46.519Z,16.30
2022-10-23T18:52:32.614Z,16.20
2022-10-23T18:55:19.027Z,16.10
2022-10-23T18:58:05.000Z,15.90
2022-10-23T19:00:51.006Z,15.90
2022-10-23T19:03:37.007Z,15.90
2022-10-23T19:06:23.521Z,15.90
2022-10-23T19:09:10.629Z,15.80
2022-10-23T19:11:56.808Z,15.80
2022-10-23T19:14:42.820Z,15.70
2022-10-23T19:17:31.570Z,15.70
2022-10-23T19:20:20.296Z,15.70
2022-10-23T19:23:06.894Z,15.70
2022-10-23T19:25:52.893Z,15.70
2022-10-23T19:28:42.344Z,15.70
2022-10-23T19:31:28.719Z,15.50
2022-10-23T19:34:20.055Z,15.30
2022-10-23T19:37:06.534Z,15.10
2022-10-23T19:39:52.602Z,15.20
2022-10-23T19:42:41.164Z,15.20
2022-10-23T19:45:27.186Z,15.20
2022-10-23T19:48:13.172Z,15.30
2022-10-23T19:50:59.432Z,15.20
2022-10-23T19:53:45.427Z,15.20
2022-10-23T19:56:31.524Z,15.30
2022-10-23T19:59:18.286Z,15.30
2022-10-23T20:02:04.750Z,15.40
2022-10-23T20:04:51.417Z,15.30
2022-10-23T20:07:37.764Z,15.40
2022-10-23T20:10:25.645Z,15.40
2022-10-23T20:13:20.240Z,15.40
2022-10-23T20:16:07.095Z,15.50
2022-10-23T20:18:53.584Z,15.50
2022-10-23T20:21:42.021Z,15.50
2022-10-23T20:24:28.071Z,15.50
2022-10-23T20:27:14.679Z,15.50
2022-10-23T20:30:00.741Z,15.50
2022-10-23T20:32:46.889Z,15.60
2022-10-23T20:35:43.308Z,15.40
2022-10-23T20:38:29.447Z,15.30
2022-10-23T20:41:15.680Z,15.20
2022-10-23T20:44:01.901Z,15.30
2022-10-23T20:46:48.376Z,15.30
2022-10-23T20:49:34.373Z,15.40
2022-10-23T20:52:22.038Z,15.40
2022-10-23T20:55:08.581Z,15.50
2022-10-23T20:57:55.058Z,15.60
2022-10-23T21:00:40.848Z,15.70
2022-10-23T21:03:26.783Z,15.70
2022-10-23T21:06:16.738Z,15.80
2022-10-23T21:09:05.754Z,15.80
2022-10-23T21:11:51.724Z,15.80
2022-10-23T21:14:37.995Z,15.70
2022-10-23T21:17:24.178Z,15.60
2022-10-23T21:20:10.469Z,15.60
2022-10-23T21:22:57.477Z,15.60
2022-10-23T21:25:44.030Z,15.50
2022-10-23T21:28:30.250Z,15.60
2022-10-23T21:31:16.535Z,15.50
2022-10-23T21:34:03.396Z,15.50
2022-10-23T21:37:11.490Z,15.60
2022-10-23T21:39:55.425Z,15.50
2022-10-23T21:42:41.270Z,15.40
2022-10-23T21:45:27.193Z,15.30
2022-10-23T21:48:13.093Z,15.20
2022-10-23T21:51:00.201Z,15.20
2022-10-23T21:53:46.015Z,15.20
2022-10-23T21:56:46.820Z,15.30
2022-10-23T21:59:35.907Z,15.20
2022-10-23T22:02:22.733Z,15.20
2022-10-23T22:05:09.200Z,15.20
2022-10-23T22:07:55.151Z,15.20
2022-10-23T22:10:40.961Z,15.40
2022-10-23T22:13:26.834Z,15.50
2022-10-23T22:16:14.478Z,15.50
2022-10-23T22:19:00.682Z,15.70
2022-10-23T22:21:47.856Z,15.80
2022-10-23T22:24:35.539Z,15.90
2022-10-23T22:27:21.377Z,16.00
2022-10-23T22:30:07.744Z,16.10
2022-10-23T22:32:54.173Z,16.20
2022-10-23T22:35:40.052Z,16.30
2022-10-23T22:38:26.045Z,16.50
2022-10-23T22:41:12.119Z,16.60
2022-10-23T22:43:59.292Z,16.70
2022-10-23T22:46:45.438Z,16.70
2022-10-23T22:49:31.657Z,16.80
2022-10-23T22:52:17.515Z,16.90
2022-10-23T22:55:03.601Z,16.80
2022-10-23T22:57:50.141Z,16.80
2022-10-23T23:00:41.279Z,16.80
2022-10-23T23:03:29.551Z,16.80
2022-10-23T23:06:17.165Z,16.80
2022-10-23T23:09:03.830Z,16.80
2022-10-23T23:11:52.996Z,16.80
2022-10-23T23:14:40.407Z,16.80
2022-10-23T23:17:26.890Z,16.80
2022-10-23T23:20:13.577Z,16.90
2022-10-23T23:22:59.610Z,16.90
2022-10-23T23:25:48.230Z,17.00
2022-10-23T23:28:34.512Z,17.00
2022-10-23T23:31:23.390Z,17.10
2022-10-23T23:34:09.510Z,17.20
2022-10-23T23:36:55.468Z,17.20
2022-10-23T23:39:41.509Z,17.20
2022-10-23T23:42:27.437Z,17.30
2022-10-23T23:45:15.123Z,17.20
2022-10-23T23:48:01.266Z,17.20
2022-10-23T23:50:47.432Z,17.30
2022-10-23T23:53:33.230Z,17.20
2022-10-23T23:56:19.940Z,17.20
2022-10-23T23:59:06.031Z,17.20
